sensor_id;sensor_type;location;lat;lon;timestamp;P1;durP1;ratioP1;P2;durP2;ratioP2
82296;SDS011;71899;51.992;8.648;2023-08-01T00:02:02;4.40;;;2.80;;
82296;SDS011;71899;51.992;8.648;2023-08-01T00:04:28;2.85;;;2.28;;
82296;SDS011;71899;51.992;8.648;2023-08-01T00:06:53;5.82;;;2.67;;
82296;SDS011;71899;51.992;8.648;2023-08-01T00:09:18;2.88;;;2.40;;
82296;SDS011;71899;51.992;8.648;2023-08-01T00:11:44;3.00;;;2.55;;
82296;SDS011;71899;51.992;8.648;2023-08-01T00:14:09;3.13;;;2.08;;
82296;SDS011;71899;51.992;8.648;2023-08-01T00:16:34;2.22;;;1.98;;
82296;SDS011;71899;51.992;8.648;2023-08-01T00:19:00;2.00;;;1.80;;
82296;SDS011;71899;51.992;8.648;2023-08-01T00:21:25;2.80;;;1.80;;
82296;SDS011;71899;51.992;8.648;2023-08-01T00:23:50;2.47;;;1.85;;
82296;SDS011;71899;51.992;8.648;2023-08-01T00:26:16;2.33;;;1.80;;
82296;SDS011;71899;51.992;8.648;2023-08-01T00:28:42;3.08;;;1.90;;
82296;SDS011;71899;51.992;8.648;2023-08-01T00:31:07;2.28;;;1.48;;
82296;SDS011;71899;51.992;8.648;2023-08-01T00:33:36;2.65;;;1.75;;
82296;SDS011;71899;51.992;8.648;2023-08-01T00:36:01;3.42;;;1.80;;
82296;SDS011;71899;51.992;8.648;2023-08-01T00:38:27;2.25;;;1.75;;
82296;SDS011;71899;51.992;8.648;2023-08-01T00:40:53;3.92;;;1.67;;
82296;SDS011;71899;51.992;8.648;2023-08-01T00:43:18;3.45;;;1.42;;
82296;SDS011;71899;51.992;8.648;2023-08-01T00:45:44;2.47;;;1.33;;
82296;SDS011;71899;51.992;8.648;2023-08-01T00:48:10;2.75;;;1.48;;
82296;SDS011;71899;51.992;8.648;2023-08-01T00:50:35;4.45;;;1.40;;
82296;SDS011;71899;51.992;8.648;2023-08-01T00:53:01;1.73;;;1.30;;
82296;SDS011;71899;51.992;8.648;2023-08-01T00:55:27;2.42;;;1.60;;
82296;SDS011;71899;51.992;8.648;2023-08-01T00:57:54;2.10;;;1.65;;
82296;SDS011;71899;51.992;8.648;2023-08-01T01:00:19;4.45;;;1.92;;
82296;SDS011;71899;51.992;8.648;2023-08-01T01:02:45;7.68;;;1.67;;
82296;SDS011;71899;51.992;8.648;2023-08-01T01:05:10;3.72;;;1.63;;
82296;SDS011;71899;51.992;8.648;2023-08-01T01:07:35;7.32;;;1.48;;
82296;SDS011;71899;51.992;8.648;2023-08-01T01:10:02;5.05;;;1.60;;
82296;SDS011;71899;51.992;8.648;2023-08-01T01:12:27;4.30;;;1.55;;
82296;SDS011;71899;51.992;8.648;2023-08-01T01:14:53;2.40;;;1.60;;
82296;SDS011;71899;51.992;8.648;2023-08-01T01:17:18;3.97;;;1.67;;
82296;SDS011;71899;51.992;8.648;2023-08-01T01:19:44;2.38;;;1.58;;
82296;SDS011;71899;51.992;8.648;2023-08-01T01:22:09;3.88;;;1.63;;
82296;SDS011;71899;51.992;8.648;2023-08-01T01:24:36;6.75;;;1.70;;
82296;SDS011;71899;51.992;8.648;2023-08-01T01:27:03;3.08;;;1.90;;
82296;SDS011;71899;51.992;8.648;2023-08-01T01:29:29;2.50;;;1.63;;
82296;SDS011;71899;51.992;8.648;2023-08-01T01:31:58;7.25;;;1.83;;
82296;SDS011;71899;51.992;8.648;2023-08-01T01:34:24;3.50;;;1.65;;
82296;SDS011;71899;51.992;8.648;2023-08-01T01:36:50;1.38;;;1.08;;
82296;SDS011;71899;51.992;8.648;2023-08-01T01:39:15;5.32;;;1.38;;
82296;SDS011;71899;51.992;8.648;2023-08-01T01:41:40;2.63;;;1.40;;
82296;SDS011;71899;51.992;8.648;2023-08-01T01:44:06;2.28;;;1.75;;
82296;SDS011;71899;51.992;8.648;2023-08-01T01:46:31;4.70;;;1.40;;
82296;SDS011;71899;51.992;8.648;2023-08-01T01:48:56;2.38;;;1.70;;
82296;SDS011;71899;51.992;8.648;2023-08-01T01:51:23;1.90;;;1.20;;
82296;SDS011;71899;51.992;8.648;2023-08-01T01:53:49;1.95;;;1.25;;
82296;SDS011;71899;51.992;8.648;2023-08-01T01:56:15;3.78;;;1.38;;
82296;SDS011;71899;51.992;8.648;2023-08-01T01:58:40;5.28;;;1.50;;
82296;SDS011;71899;51.992;8.648;2023-08-01T02:01:05;2.55;;;1.52;;
82296;SDS011;71899;51.992;8.648;2023-08-01T02:03:31;4.80;;;1.77;;
82296;SDS011;71899;51.992;8.648;2023-08-01T02:05:57;3.35;;;1.60;;
82296;SDS011;71899;51.992;8.648;2023-08-01T02:08:22;6.85;;;1.63;;
82296;SDS011;71899;51.992;8.648;2023-08-01T02:10:48;4.47;;;1.50;;
82296;SDS011;71899;51.992;8.648;2023-08-01T02:13:15;4.75;;;1.55;;
82296;SDS011;71899;51.992;8.648;2023-08-01T02:15:40;3.08;;;1.58;;
82296;SDS011;71899;51.992;8.648;2023-08-01T02:18:06;3.28;;;1.50;;
82296;SDS011;71899;51.992;8.648;2023-08-01T02:20:31;7.95;;;1.80;;
82296;SDS011;71899;51.992;8.648;2023-08-01T02:22:57;5.13;;;1.88;;
82296;SDS011;71899;51.992;8.648;2023-08-01T02:25:22;2.58;;;1.70;;
82296;SDS011;71899;51.992;8.648;2023-08-01T02:27:48;9.70;;;2.40;;
82296;SDS011;71899;51.992;8.648;2023-08-01T02:30:14;5.53;;;2.25;;
82296;SDS011;71899;51.992;8.648;2023-08-01T02:32:39;4.57;;;2.17;;
82296;SDS011;71899;51.992;8.648;2023-08-01T02:35:05;13.80;;;3.03;;
82296;SDS011;71899;51.992;8.648;2023-08-01T02:37:30;6.57;;;2.10;;
82296;SDS011;71899;51.992;8.648;2023-08-01T02:39:56;27.00;;;3.53;;
82296;SDS011;71899;51.992;8.648;2023-08-01T02:42:21;5.63;;;2.03;;
82296;SDS011;71899;51.992;8.648;2023-08-01T02:44:46;5.75;;;1.73;;
82296;SDS011;71899;51.992;8.648;2023-08-01T02:47:11;5.43;;;2.58;;
82296;SDS011;71899;51.992;8.648;2023-08-01T02:49:37;3.53;;;1.70;;
82296;SDS011;71899;51.992;8.648;2023-08-01T02:52:02;6.13;;;1.70;;
82296;SDS011;71899;51.992;8.648;2023-08-01T02:54:28;7.78;;;1.70;;
82296;SDS011;71899;51.992;8.648;2023-08-01T02:56:53;3.35;;;1.60;;
82296;SDS011;71899;51.992;8.648;2023-08-01T02:59:18;2.30;;;1.20;;
82296;SDS011;71899;51.992;8.648;2023-08-01T03:01:44;3.30;;;1.45;;
82296;SDS011;71899;51.992;8.648;2023-08-01T03:04:09;2.88;;;1.58;;
82296;SDS011;71899;51.992;8.648;2023-08-01T03:06:37;3.65;;;2.22;;
82296;SDS011;71899;51.992;8.648;2023-08-01T03:09:02;5.68;;;2.15;;
82296;SDS011;71899;51.992;8.648;2023-08-01T03:11:28;6.13;;;2.30;;
82296;SDS011;71899;51.992;8.648;2023-08-01T03:13:54;4.38;;;2.30;;
82296;SDS011;71899;51.992;8.648;2023-08-01T03:16:19;6.60;;;2.20;;
82296;SDS011;71899;51.992;8.648;2023-08-01T03:18:45;5.05;;;3.00;;
82296;SDS011;71899;51.992;8.648;2023-08-01T03:21:10;8.38;;;3.63;;
82296;SDS011;71899;51.992;8.648;2023-08-01T03:23:36;9.23;;;4.82;;
82296;SDS011;71899;51.992;8.648;2023-08-01T03:26:01;6.45;;;3.45;;
82296;SDS011;71899;51.992;8.648;2023-08-01T03:28:27;5.82;;;3.03;;
82296;SDS011;71899;51.992;8.648;2023-08-01T03:30:52;6.03;;;3.83;;
82296;SDS011;71899;51.992;8.648;2023-08-01T03:33:19;6.57;;;3.80;;
82296;SDS011;71899;51.992;8.648;2023-08-01T03:35:47;10.00;;;4.00;;
82296;SDS011;71899;51.992;8.648;2023-08-01T03:38:12;7.53;;;4.05;;
82296;SDS011;71899;51.992;8.648;2023-08-01T03:40:38;8.90;;;3.60;;
82296;SDS011;71899;51.992;8.648;2023-08-01T03:43:03;12.18;;;4.13;;
82296;SDS011;71899;51.992;8.648;2023-08-01T03:45:28;9.68;;;4.30;;
82296;SDS011;71899;51.992;8.648;2023-08-01T03:47:54;9.32;;;4.22;;
82296;SDS011;71899;51.992;8.648;2023-08-01T03:50:19;10.30;;;4.50;;
82296;SDS011;71899;51.992;8.648;2023-08-01T03:52:47;21.23;;;5.53;;
82296;SDS011;71899;51.992;8.648;2023-08-01T03:55:12;11.05;;;4.90;;
82296;SDS011;71899;51.992;8.648;2023-08-01T03:57:38;13.93;;;5.35;;
82296;SDS011;71899;51.992;8.648;2023-08-01T04:00:04;14.82;;;5.90;;
82296;SDS011;71899;51.992;8.648;2023-08-01T04:02:37;12.80;;;5.20;;
82296;SDS011;71899;51.992;8.648;2023-08-01T04:05:03;15.55;;;5.90;;
82296;SDS011;71899;51.992;8.648;2023-08-01T04:07:28;9.95;;;5.28;;
82296;SDS011;71899;51.992;8.648;2023-08-01T04:09:53;15.98;;;5.95;;
82296;SDS011;71899;51.992;8.648;2023-08-01T04:12:19;12.90;;;5.93;;
82296;SDS011;71899;51.992;8.648;2023-08-01T04:14:44;18.98;;;6.40;;
82296;SDS011;71899;51.992;8.648;2023-08-01T04:17:09;17.88;;;6.15;;
82296;SDS011;71899;51.992;8.648;2023-08-01T04:19:34;22.48;;;8.85;;
82296;SDS011;71899;51.992;8.648;2023-08-01T04:22:00;20.00;;;8.15;;
82296;SDS011;71899;51.992;8.648;2023-08-01T04:24:25;29.20;;;9.60;;
82296;SDS011;71899;51.992;8.648;2023-08-01T04:26:52;34.33;;;9.27;;
82296;SDS011;71899;51.992;8.648;2023-08-01T04:29:19;22.10;;;8.65;;
82296;SDS011;71899;51.992;8.648;2023-08-01T04:31:44;28.27;;;8.18;;
82296;SDS011;71899;51.992;8.648;2023-08-01T04:34:09;20.92;;;7.68;;
82296;SDS011;71899;51.992;8.648;2023-08-01T04:36:35;11.30;;;5.10;;
82296;SDS011;71899;51.992;8.648;2023-08-01T04:39:00;8.48;;;4.47;;
82296;SDS011;71899;51.992;8.648;2023-08-01T04:41:25;10.57;;;4.70;;
82296;SDS011;71899;51.992;8.648;2023-08-01T04:43:51;9.02;;;4.00;;
82296;SDS011;71899;51.992;8.648;2023-08-01T04:46:16;10.95;;;5.05;;
82296;SDS011;71899;51.992;8.648;2023-08-01T04:48:42;11.52;;;5.18;;
82296;SDS011;71899;51.992;8.648;2023-08-01T04:51:07;9.70;;;4.85;;
82296;SDS011;71899;51.992;8.648;2023-08-01T04:53:32;8.27;;;4.30;;
82296;SDS011;71899;51.992;8.648;2023-08-01T04:55:58;9.55;;;4.63;;
82296;SDS011;71899;51.992;8.648;2023-08-01T04:58:23;11.30;;;4.38;;
82296;SDS011;71899;51.992;8.648;2023-08-01T05:00:48;7.32;;;4.10;;
82296;SDS011;71899;51.992;8.648;2023-08-01T05:03:13;8.48;;;4.53;;
82296;SDS011;71899;51.992;8.648;2023-08-01T05:05:39;10.23;;;4.93;;
82296;SDS011;71899;51.992;8.648;2023-08-01T05:08:04;14.73;;;4.60;;
82296;SDS011;71899;51.992;8.648;2023-08-01T05:10:29;13.40;;;6.22;;
82296;SDS011;71899;51.992;8.648;2023-08-01T05:12:55;11.30;;;5.40;;
82296;SDS011;71899;51.992;8.648;2023-08-01T05:15:20;15.45;;;5.10;;
82296;SDS011;71899;51.992;8.648;2023-08-01T05:17:45;12.82;;;5.05;;
82296;SDS011;71899;51.992;8.648;2023-08-01T05:20:11;14.02;;;5.28;;
82296;SDS011;71899;51.992;8.648;2023-08-01T05:22:36;14.57;;;5.80;;
82296;SDS011;71899;51.992;8.648;2023-08-01T05:25:01;13.55;;;5.63;;
82296;SDS011;71899;51.992;8.648;2023-08-01T05:27:28;9.45;;;5.43;;
82296;SDS011;71899;51.992;8.648;2023-08-01T05:29:54;15.95;;;6.10;;
82296;SDS011;71899;51.992;8.648;2023-08-01T05:32:19;11.65;;;5.40;;
82296;SDS011;71899;51.992;8.648;2023-08-01T05:34:44;15.02;;;5.93;;
82296;SDS011;71899;51.992;8.648;2023-08-01T05:37:09;14.30;;;7.32;;
82296;SDS011;71899;51.992;8.648;2023-08-01T05:39:35;13.27;;;6.15;;
82296;SDS011;71899;51.992;8.648;2023-08-01T05:42:00;18.38;;;6.88;;
82296;SDS011;71899;51.992;8.648;2023-08-01T05:44:26;11.43;;;7.15;;
82296;SDS011;71899;51.992;8.648;2023-08-01T05:46:51;21.27;;;7.72;;
82296;SDS011;71899;51.992;8.648;2023-08-01T05:49:16;19.23;;;6.53;;
82296;SDS011;71899;51.992;8.648;2023-08-01T05:51:41;9.45;;;5.88;;
82296;SDS011;71899;51.992;8.648;2023-08-01T05:54:07;17.55;;;6.22;;
82296;SDS011;71899;51.992;8.648;2023-08-01T05:56:32;13.13;;;7.32;;
82296;SDS011;71899;51.992;8.648;2023-08-01T05:58:57;14.43;;;6.50;;
82296;SDS011;71899;51.992;8.648;2023-08-01T06:01:23;14.73;;;6.93;;
82296;SDS011;71899;51.992;8.648;2023-08-01T06:03:48;12.88;;;6.57;;
82296;SDS011;71899;51.992;8.648;2023-08-01T06:06:13;16.15;;;6.60;;
82296;SDS011;71899;51.992;8.648;2023-08-01T06:08:39;12.57;;;6.38;;
82296;SDS011;71899;51.992;8.648;2023-08-01T06:11:04;17.52;;;5.95;;
82296;SDS011;71899;51.992;8.648;2023-08-01T06:13:29;21.35;;;6.65;;
82296;SDS011;71899;51.992;8.648;2023-08-01T06:15:55;15.55;;;5.53;;
82296;SDS011;71899;51.992;8.648;2023-08-01T06:18:20;11.07;;;6.10;;
82296;SDS011;71899;51.992;8.648;2023-08-01T06:20:45;21.33;;;6.80;;
82296;SDS011;71899;51.992;8.648;2023-08-01T06:23:10;13.65;;;6.50;;
82296;SDS011;71899;51.992;8.648;2023-08-01T06:25:36;15.88;;;6.78;;
82296;SDS011;71899;51.992;8.648;2023-08-01T06:28:01;14.02;;;6.95;;
82296;SDS011;71899;51.992;8.648;2023-08-01T06:30:26;14.30;;;6.90;;
82296;SDS011;71899;51.992;8.648;2023-08-01T06:32:52;18.35;;;7.68;;
82296;SDS011;71899;51.992;8.648;2023-08-01T06:35:17;17.05;;;7.43;;
82296;SDS011;71899;51.992;8.648;2023-08-01T06:37:42;17.77;;;7.32;;
82296;SDS011;71899;51.992;8.648;2023-08-01T06:40:08;16.15;;;7.82;;
82296;SDS011;71899;51.992;8.648;2023-08-01T06:42:33;17.30;;;7.38;;
82296;SDS011;71899;51.992;8.648;2023-08-01T06:44:59;16.52;;;9.00;;
82296;SDS011;71899;51.992;8.648;2023-08-01T06:47:24;17.05;;;7.72;;
82296;SDS011;71899;51.992;8.648;2023-08-01T06:49:49;15.65;;;7.28;;
82296;SDS011;71899;51.992;8.648;2023-08-01T06:52:15;12.13;;;7.35;;
82296;SDS011;71899;51.992;8.648;2023-08-01T06:54:40;12.75;;;7.22;;
82296;SDS011;71899;51.992;8.648;2023-08-01T06:57:06;11.25;;;6.13;;
82296;SDS011;71899;51.992;8.648;2023-08-01T06:59:31;14.85;;;7.05;;
82296;SDS011;71899;51.992;8.648;2023-08-01T07:01:57;12.18;;;6.88;;
82296;SDS011;71899;51.992;8.648;2023-08-01T07:04:22;13.70;;;6.47;;
82296;SDS011;71899;51.992;8.648;2023-08-01T07:06:48;16.50;;;6.47;;
82296;SDS011;71899;51.992;8.648;2023-08-01T07:09:14;11.85;;;6.35;;
82296;SDS011;71899;51.992;8.648;2023-08-01T07:11:40;12.98;;;6.53;;
82296;SDS011;71899;51.992;8.648;2023-08-01T07:14:05;17.08;;;7.30;;
82296;SDS011;71899;51.992;8.648;2023-08-01T07:16:30;17.92;;;8.23;;
82296;SDS011;71899;51.992;8.648;2023-08-01T07:18:57;13.70;;;7.18;;
82296;SDS011;71899;51.992;8.648;2023-08-01T07:21:24;12.95;;;7.80;;
82296;SDS011;71899;51.992;8.648;2023-08-01T07:23:50;13.75;;;6.78;;
82296;SDS011;71899;51.992;8.648;2023-08-01T07:26:15;13.90;;;7.63;;
82296;SDS011;71899;51.992;8.648;2023-08-01T07:28:41;10.05;;;5.10;;
82296;SDS011;71899;51.992;8.648;2023-08-01T07:31:07;11.70;;;5.13;;
82296;SDS011;71899;51.992;8.648;2023-08-01T07:33:35;12.30;;;6.15;;
82296;SDS011;71899;51.992;8.648;2023-08-01T07:36:01;13.90;;;6.72;;
82296;SDS011;71899;51.992;8.648;2023-08-01T07:38:26;11.15;;;7.13;;
82296;SDS011;71899;51.992;8.648;2023-08-01T07:40:52;14.32;;;7.35;;
82296;SDS011;71899;51.992;8.648;2023-08-01T07:43:20;13.65;;;9.00;;
82296;SDS011;71899;51.992;8.648;2023-08-01T07:45:45;11.48;;;6.00;;
82296;SDS011;71899;51.992;8.648;2023-08-01T07:48:10;8.77;;;5.97;;
82296;SDS011;71899;51.992;8.648;2023-08-01T07:50:36;8.65;;;5.40;;
82296;SDS011;71899;51.992;8.648;2023-08-01T07:53:01;7.68;;;4.20;;
82296;SDS011;71899;51.992;8.648;2023-08-01T07:55:27;7.38;;;4.57;;
82296;SDS011;71899;51.992;8.648;2023-08-01T07:57:52;9.00;;;5.38;;
82296;SDS011;71899;51.992;8.648;2023-08-01T08:00:17;5.13;;;3.88;;
82296;SDS011;71899;51.992;8.648;2023-08-01T08:02:43;6.88;;;3.83;;
82296;SDS011;71899;51.992;8.648;2023-08-01T08:05:09;6.00;;;4.05;;
82296;SDS011;71899;51.992;8.648;2023-08-01T08:07:36;7.38;;;5.03;;
82296;SDS011;71899;51.992;8.648;2023-08-01T08:10:02;6.43;;;4.60;;
82296;SDS011;71899;51.992;8.648;2023-08-01T08:12:27;7.72;;;4.13;;
82296;SDS011;71899;51.992;8.648;2023-08-01T08:14:53;7.40;;;3.85;;
82296;SDS011;71899;51.992;8.648;2023-08-01T08:17:18;7.97;;;4.20;;
82296;SDS011;71899;51.992;8.648;2023-08-01T08:19:44;5.60;;;3.42;;
82296;SDS011;71899;51.992;8.648;2023-08-01T08:22:09;6.82;;;3.47;;
82296;SDS011;71899;51.992;8.648;2023-08-01T08:24:35;5.53;;;3.35;;
82296;SDS011;71899;51.992;8.648;2023-08-01T08:27:00;7.53;;;2.90;;
82296;SDS011;71899;51.992;8.648;2023-08-01T08:29:25;5.38;;;3.33;;
82296;SDS011;71899;51.992;8.648;2023-08-01T08:31:50;7.43;;;3.63;;
82296;SDS011;71899;51.992;8.648;2023-08-01T08:34:16;10.30;;;3.03;;
82296;SDS011;71899;51.992;8.648;2023-08-01T08:36:41;4.45;;;2.67;;
82296;SDS011;71899;51.992;8.648;2023-08-01T08:39:06;4.60;;;2.58;;
82296;SDS011;71899;51.992;8.648;2023-08-01T08:41:35;7.60;;;3.00;;
82296;SDS011;71899;51.992;8.648;2023-08-01T08:44:03;3.97;;;2.80;;
82296;SDS011;71899;51.992;8.648;2023-08-01T08:46:32;6.22;;;3.08;;
82296;SDS011;71899;51.992;8.648;2023-08-01T08:49:02;4.55;;;3.40;;
82296;SDS011;71899;51.992;8.648;2023-08-01T08:51:28;5.28;;;2.47;;
82296;SDS011;71899;51.992;8.648;2023-08-01T08:53:55;7.65;;;3.45;;
82296;SDS011;71899;51.992;8.648;2023-08-01T08:56:21;5.97;;;3.10;;
82296;SDS011;71899;51.992;8.648;2023-08-01T08:58:48;5.38;;;3.25;;
82296;SDS011;71899;51.992;8.648;2023-08-01T09:01:14;6.25;;;2.75;;
82296;SDS011;71899;51.992;8.648;2023-08-01T09:03:40;4.70;;;3.05;;
82296;SDS011;71899;51.992;8.648;2023-08-01T09:06:14;6.68;;;3.55;;
82296;SDS011;71899;51.992;8.648;2023-08-01T09:08:43;9.27;;;4.32;;
82296;SDS011;71899;51.992;8.648;2023-08-01T09:11:20;9.43;;;4.95;;
82296;SDS011;71899;51.992;8.648;2023-08-01T09:13:45;8.23;;;5.15;;
82296;SDS011;71899;51.992;8.648;2023-08-01T09:16:12;9.80;;;5.30;;
82296;SDS011;71899;51.992;8.648;2023-08-01T09:18:46;9.48;;;5.82;;
82296;SDS011;71899;51.992;8.648;2023-08-01T09:21:17;8.43;;;6.00;;
82296;SDS011;71899;51.992;8.648;2023-08-01T09:23:43;7.22;;;5.03;;
82296;SDS011;71899;51.992;8.648;2023-08-01T09:26:13;11.02;;;5.60;;
82296;SDS011;71899;51.992;8.648;2023-08-01T09:28:41;8.18;;;5.65;;
82296;SDS011;71899;51.992;8.648;2023-08-01T09:31:07;12.57;;;5.65;;
82296;SDS011;71899;51.992;8.648;2023-08-01T09:33:41;7.97;;;5.05;;
82296;SDS011;71899;51.992;8.648;2023-08-01T09:36:07;11.93;;;6.30;;
82296;SDS011;71899;51.992;8.648;2023-08-01T09:38:36;6.47;;;5.60;;
82296;SDS011;71899;51.992;8.648;2023-08-01T09:41:02;6.47;;;4.57;;
82296;SDS011;71899;51.992;8.648;2023-08-01T09:43:35;9.25;;;5.63;;
82296;SDS011;71899;51.992;8.648;2023-08-01T09:46:02;11.55;;;5.85;;
82296;SDS011;71899;51.992;8.648;2023-08-01T09:48:28;17.83;;;7.85;;
82296;SDS011;71899;51.992;8.648;2023-08-01T09:51:08;13.85;;;7.20;;
82296;SDS011;71899;51.992;8.648;2023-08-01T09:53:35;9.68;;;5.70;;
82296;SDS011;71899;51.992;8.648;2023-08-01T09:56:11;11.25;;;6.50;;
82296;SDS011;71899;51.992;8.648;2023-08-01T09:58:40;9.20;;;6.78;;
82296;SDS011;71899;51.992;8.648;2023-08-01T10:01:08;13.57;;;7.57;;
82296;SDS011;71899;51.992;8.648;2023-08-01T10:03:33;11.20;;;8.23;;
82296;SDS011;71899;51.992;8.648;2023-08-01T10:05:59;10.50;;;7.85;;
82296;SDS011;71899;51.992;8.648;2023-08-01T10:08:24;12.82;;;8.63;;
82296;SDS011;71899;51.992;8.648;2023-08-01T10:10:50;15.00;;;7.15;;
82296;SDS011;71899;51.992;8.648;2023-08-01T10:13:16;12.82;;;6.18;;
82296;SDS011;71899;51.992;8.648;2023-08-01T10:15:42;12.75;;;7.03;;
82296;SDS011;71899;51.992;8.648;2023-08-01T10:18:08;10.20;;;4.70;;
82296;SDS011;71899;51.992;8.648;2023-08-01T10:20:35;11.13;;;6.18;;
82296;SDS011;71899;51.992;8.648;2023-08-01T10:23:02;14.25;;;5.63;;
82296;SDS011;71899;51.992;8.648;2023-08-01T10:25:29;19.13;;;6.88;;
82296;SDS011;71899;51.992;8.648;2023-08-01T10:28:01;9.65;;;4.30;;
82296;SDS011;71899;51.992;8.648;2023-08-01T10:30:28;15.45;;;8.63;;
82296;SDS011;71899;51.992;8.648;2023-08-01T10:32:57;8.73;;;6.72;;
82296;SDS011;71899;51.992;8.648;2023-08-01T10:40:37;9.63;;;6.22;;
82296;SDS011;71899;51.992;8.648;2023-08-01T10:43:22;7.50;;;5.93;;
82296;SDS011;71899;51.992;8.648;2023-08-01T10:45:59;9.20;;;5.32;;
82296;SDS011;71899;51.992;8.648;2023-08-01T10:48:25;7.25;;;4.78;;
82296;SDS011;71899;51.992;8.648;2023-08-01T10:50:54;8.60;;;5.05;;
82296;SDS011;71899;51.992;8.648;2023-08-01T10:53:21;8.93;;;4.97;;
82296;SDS011;71899;51.992;8.648;2023-08-01T10:55:46;12.43;;;6.25;;
82296;SDS011;71899;51.992;8.648;2023-08-01T10:58:13;11.20;;;6.55;;
82296;SDS011;71899;51.992;8.648;2023-08-01T11:00:38;10.13;;;6.65;;
82296;SDS011;71899;51.992;8.648;2023-08-01T11:03:04;8.32;;;5.50;;
82296;SDS011;71899;51.992;8.648;2023-08-01T11:05:29;11.55;;;5.63;;
82296;SDS011;71899;51.992;8.648;2023-08-01T11:07:58;11.43;;;5.65;;
82296;SDS011;71899;51.992;8.648;2023-08-01T11:10:26;11.98;;;4.18;;
82296;SDS011;71899;51.992;8.648;2023-08-01T11:12:52;6.80;;;3.75;;
82296;SDS011;71899;51.992;8.648;2023-08-01T11:15:22;5.95;;;4.18;;
82296;SDS011;71899;51.992;8.648;2023-08-01T11:17:48;7.25;;;3.13;;
82296;SDS011;71899;51.992;8.648;2023-08-01T11:20:18;6.68;;;4.68;;
82296;SDS011;71899;51.992;8.648;2023-08-01T11:25:19;6.47;;;3.30;;
82296;SDS011;71899;51.992;8.648;2023-08-01T11:27:45;4.88;;;3.08;;
82296;SDS011;71899;51.992;8.648;2023-08-01T11:30:10;6.70;;;3.05;;
82296;SDS011;71899;51.992;8.648;2023-08-01T11:32:36;7.05;;;4.88;;
82296;SDS011;71899;51.992;8.648;2023-08-01T11:35:02;8.30;;;3.80;;
82296;SDS011;71899;51.992;8.648;2023-08-01T11:37:28;7.93;;;4.70;;
82296;SDS011;71899;51.992;8.648;2023-08-01T11:39:54;9.90;;;4.65;;
82296;SDS011;71899;51.992;8.648;2023-08-01T11:42:20;6.18;;;4.28;;
82296;SDS011;71899;51.992;8.648;2023-08-01T11:44:45;9.25;;;4.97;;
82296;SDS011;71899;51.992;8.648;2023-08-01T11:47:14;7.63;;;4.07;;
82296;SDS011;71899;51.992;8.648;2023-08-01T11:49:47;10.80;;;6.55;;
82296;SDS011;71899;51.992;8.648;2023-08-01T11:52:26;9.32;;;4.57;;
82296;SDS011;71899;51.992;8.648;2023-08-01T11:54:52;8.70;;;5.43;;
82296;SDS011;71899;51.992;8.648;2023-08-01T11:57:20;7.45;;;4.25;;
82296;SDS011;71899;51.992;8.648;2023-08-01T11:59:46;9.65;;;5.30;;
82296;SDS011;71899;51.992;8.648;2023-08-01T12:02:20;10.18;;;5.82;;
82296;SDS011;71899;51.992;8.648;2023-08-01T12:04:57;9.45;;;5.85;;
82296;SDS011;71899;51.992;8.648;2023-08-01T12:07:24;9.70;;;7.38;;
82296;SDS011;71899;51.992;8.648;2023-08-01T12:09:56;12.57;;;5.72;;
82296;SDS011;71899;51.992;8.648;2023-08-01T12:12:26;10.90;;;6.30;;
82296;SDS011;71899;51.992;8.648;2023-08-01T12:14:52;14.02;;;5.35;;
82296;SDS011;71899;51.992;8.648;2023-08-01T12:17:18;13.88;;;5.57;;
82296;SDS011;71899;51.992;8.648;2023-08-01T12:19:43;9.25;;;4.38;;
82296;SDS011;71899;51.992;8.648;2023-08-01T12:22:09;10.23;;;5.00;;
82296;SDS011;71899;51.992;8.648;2023-08-01T12:24:34;6.07;;;3.33;;
82296;SDS011;71899;51.992;8.648;2023-08-01T12:27:02;8.10;;;3.35;;
82296;SDS011;71899;51.992;8.648;2023-08-01T12:29:29;6.82;;;3.45;;
82296;SDS011;71899;51.992;8.648;2023-08-01T12:31:54;8.27;;;3.10;;
82296;SDS011;71899;51.992;8.648;2023-08-01T12:34:19;6.82;;;2.78;;
82296;SDS011;71899;51.992;8.648;2023-08-01T12:36:45;5.40;;;2.80;;
82296;SDS011;71899;51.992;8.648;2023-08-01T12:39:10;9.15;;;3.53;;
82296;SDS011;71899;51.992;8.648;2023-08-01T12:41:37;6.88;;;2.80;;
82296;SDS011;71899;51.992;8.648;2023-08-01T12:44:03;5.20;;;2.60;;
82296;SDS011;71899;51.992;8.648;2023-08-01T12:46:29;8.00;;;2.40;;
82296;SDS011;71899;51.992;8.648;2023-08-01T12:48:54;6.78;;;2.47;;
82296;SDS011;71899;51.992;8.648;2023-08-01T12:51:19;3.88;;;2.20;;
82296;SDS011;71899;51.992;8.648;2023-08-01T12:53:45;7.60;;;2.30;;
82296;SDS011;71899;51.992;8.648;2023-08-01T12:56:12;10.02;;;3.28;;
82296;SDS011;71899;51.992;8.648;2023-08-01T12:58:38;9.52;;;3.17;;
82296;SDS011;71899;51.992;8.648;2023-08-01T13:01:03;7.22;;;2.08;;
82296;SDS011;71899;51.992;8.648;2023-08-01T13:03:29;6.20;;;2.33;;
82296;SDS011;71899;51.992;8.648;2023-08-01T13:05:54;4.80;;;3.03;;
82296;SDS011;71899;51.992;8.648;2023-08-01T13:08:21;7.22;;;3.08;;
82296;SDS011;71899;51.992;8.648;2023-08-01T13:10:47;5.32;;;3.20;;
82296;SDS011;71899;51.992;8.648;2023-08-01T13:13:14;3.92;;;2.53;;
82296;SDS011;71899;51.992;8.648;2023-08-01T13:15:40;9.57;;;2.85;;
82296;SDS011;71899;51.992;8.648;2023-08-01T13:18:05;6.40;;;2.55;;
82296;SDS011;71899;51.992;8.648;2023-08-01T13:20:30;8.63;;;2.92;;
82296;SDS011;71899;51.992;8.648;2023-08-01T13:22:56;7.32;;;3.55;;
82296;SDS011;71899;51.992;8.648;2023-08-01T13:25:21;8.38;;;3.10;;
82296;SDS011;71899;51.992;8.648;2023-08-01T13:27:46;6.22;;;2.88;;
82296;SDS011;71899;51.992;8.648;2023-08-01T13:30:12;5.97;;;4.22;;
82296;SDS011;71899;51.992;8.648;2023-08-01T13:32:42;5.22;;;2.65;;
82296;SDS011;71899;51.992;8.648;2023-08-01T13:35:08;5.72;;;2.50;;
82296;SDS011;71899;51.992;8.648;2023-08-01T13:37:33;5.35;;;1.92;;
82296;SDS011;71899;51.992;8.648;2023-08-01T13:40:00;3.03;;;1.73;;
82296;SDS011;71899;51.992;8.648;2023-08-01T13:42:25;4.22;;;1.70;;
82296;SDS011;71899;51.992;8.648;2023-08-01T13:44:51;3.97;;;1.88;;
82296;SDS011;71899;51.992;8.648;2023-08-01T13:47:18;5.40;;;2.22;;
82296;SDS011;71899;51.992;8.648;2023-08-01T13:49:44;4.38;;;1.42;;
82296;SDS011;71899;51.992;8.648;2023-08-01T13:52:09;2.80;;;1.63;;
82296;SDS011;71899;51.992;8.648;2023-08-01T13:54:34;3.80;;;1.67;;
82296;SDS011;71899;51.992;8.648;2023-08-01T13:57:00;3.13;;;1.50;;
82296;SDS011;71899;51.992;8.648;2023-08-01T13:59:25;6.32;;;1.67;;
82296;SDS011;71899;51.992;8.648;2023-08-01T14:01:50;3.40;;;1.40;;
82296;SDS011;71899;51.992;8.648;2023-08-01T14:04:17;4.45;;;1.50;;
82296;SDS011;71899;51.992;8.648;2023-08-01T14:06:42;3.17;;;1.80;;
82296;SDS011;71899;51.992;8.648;2023-08-01T14:09:08;4.50;;;1.50;;
82296;SDS011;71899;51.992;8.648;2023-08-01T14:11:34;7.70;;;1.98;;
82296;SDS011;71899;51.992;8.648;2023-08-01T14:14:00;4.05;;;1.38;;
82296;SDS011;71899;51.992;8.648;2023-08-01T14:16:25;4.15;;;1.60;;
82296;SDS011;71899;51.992;8.648;2023-08-01T14:18:51;4.53;;;1.40;;
82296;SDS011;71899;51.992;8.648;2023-08-01T14:21:16;5.88;;;1.25;;
82296;SDS011;71899;51.992;8.648;2023-08-01T14:23:42;5.03;;;1.38;;
82296;SDS011;71899;51.992;8.648;2023-08-01T14:26:08;6.70;;;1.67;;
82296;SDS011;71899;51.992;8.648;2023-08-01T14:28:33;3.78;;;1.80;;
82296;SDS011;71899;51.992;8.648;2023-08-01T14:31:01;4.25;;;1.50;;
82296;SDS011;71899;51.992;8.648;2023-08-01T14:33:28;3.85;;;2.10;;
82296;SDS011;71899;51.992;8.648;2023-08-01T14:35:53;6.20;;;2.42;;
82296;SDS011;71899;51.992;8.648;2023-08-01T14:38:19;5.05;;;1.80;;
82296;SDS011;71899;51.992;8.648;2023-08-01T14:40:44;4.28;;;1.85;;
82296;SDS011;71899;51.992;8.648;2023-08-01T14:43:10;4.20;;;1.90;;
82296;SDS011;71899;51.992;8.648;2023-08-01T14:45:39;8.07;;;2.40;;